sensor_id;sensor_type;location;lat;lon;timestamp;temperature;humidity
72638;DHT22;60681;50.308;8.972;2023-05-21T10:36:32;26.90;52.30
72638;DHT22;60681;50.308;8.972;2023-05-21T10:38:59;27.00;50.40
72638;DHT22;60681;50.308;8.972;2023-05-21T10:41:27;26.90;54.20
72638;DHT22;60681;50.308;8.972;2023-05-21T10:46:58;26.70;51.70
72638;DHT22;60681;50.308;8.972;2023-05-21T10:49:50;26.60;52.00
72638;DHT22;60681;50.308;8.972;2023-05-21T10:52:43;26.60;53.50
72638;DHT22;60681;50.308;8.972;2023-05-21T10:55:34;26.70;52.20
72638;DHT22;60681;50.308;8.972;2023-05-21T11:01:17;26.30;52.80
72638;DHT22;60681;50.308;8.972;2023-05-21T11:03:45;26.40;52.20
72638;DHT22;60681;50.308;8.972;2023-05-21T11:06:11;26.40;52.70
72638;DHT22;60681;50.308;8.972;2023-05-21T11:08:46;26.20;51.30
72638;DHT22;60681;50.308;8.972;2023-05-21T11:11:12;26.40;52.10
72638;DHT22;60681;50.308;8.972;2023-05-21T11:13:48;26.40;52.30
72638;DHT22;60681;50.308;8.972;2023-05-21T11:16:15;26.40;52.80
72638;DHT22;60681;50.308;8.972;2023-05-21T11:23:50;26.30;51.70
72638;DHT22;60681;50.308;8.972;2023-05-21T11:26:24;26.50;52.50
72638;DHT22;60681;50.308;8.972;2023-05-21T11:29:06;26.60;50.10
72638;DHT22;60681;50.308;8.972;2023-05-21T11:31:33;26.50;51.50
72638;DHT22;60681;50.308;8.972;2023-05-21T11:34:11;26.50;51.50
72638;DHT22;60681;50.308;8.972;2023-05-21T11:36:40;26.60;51.50
72638;DHT22;60681;50.308;8.972;2023-05-21T11:39:15;26.70;54.10
72638;DHT22;60681;50.308;8.972;2023-05-21T11:41:51;26.80;49.90
72638;DHT22;60681;50.308;8.972;2023-05-21T11:44:19;26.90;51.10
72638;DHT22;60681;50.308;8.972;2023-05-21T11:46:48;26.90;50.90
72638;DHT22;60681;50.308;8.972;2023-05-21T11:49:15;27.00;51.20
72638;DHT22;60681;50.308;8.972;2023-05-21T11:51:41;27.20;51.30
72638;DHT22;60681;50.308;8.972;2023-05-21T11:54:08;27.20;51.20
72638;DHT22;60681;50.308;8.972;2023-05-21T11:56:35;27.10;49.80
72638;DHT22;60681;50.308;8.972;2023-05-21T11:59:12;26.90;50.90
72638;DHT22;60681;50.308;8.972;2023-05-21T12:01:38;26.90;53.50
72638;DHT22;60681;50.308;8.972;2023-05-21T12:04:06;26.90;49.40
72638;DHT22;60681;50.308;8.972;2023-05-21T12:06:32;26.60;50.50
72638;DHT22;60681;50.308;8.972;2023-05-21T12:08:58;26.60;51.70
72638;DHT22;60681;50.308;8.972;2023-05-21T12:11:24;26.50;52.60
72638;DHT22;60681;50.308;8.972;2023-05-21T12:13:51;26.40;49.80
72638;DHT22;60681;50.308;8.972;2023-05-21T12:16:17;26.30;49.50
72638;DHT22;60681;50.308;8.972;2023-05-21T12:18:42;26.30;51.10
72638;DHT22;60681;50.308;8.972;2023-05-21T12:21:09;26.30;49.80
72638;DHT22;60681;50.308;8.972;2023-05-21T12:23:35;26.30;50.20
72638;DHT22;60681;50.308;8.972;2023-05-21T12:26:01;26.20;49.50
72638;DHT22;60681;50.308;8.972;2023-05-21T12:28:28;26.20;49.80
72638;DHT22;60681;50.308;8.972;2023-05-21T12:30:53;26.20;50.50
72638;DHT22;60681;50.308;8.972;2023-05-21T12:33:19;26.20;50.60
72638;DHT22;60681;50.308;8.972;2023-05-21T12:35:48;26.20;50.90
72638;DHT22;60681;50.308;8.972;2023-05-21T12:38:14;26.30;51.00
72638;DHT22;60681;50.308;8.972;2023-05-21T12:40:41;26.30;50.70
72638;DHT22;60681;50.308;8.972;2023-05-21T12:43:08;26.20;50.10
72638;DHT22;60681;50.308;8.972;2023-05-21T12:45:33;26.50;51.10
72638;DHT22;60681;50.308;8.972;2023-05-21T12:48:01;26.80;48.80
72638;DHT22;60681;50.308;8.972;2023-05-21T12:50:27;26.80;48.80
72638;DHT22;60681;50.308;8.972;2023-05-21T12:52:53;27.00;49.00
72638;DHT22;60681;50.308;8.972;2023-05-21T12:55:23;27.00;50.00
72638;DHT22;60681;50.308;8.972;2023-05-21T12:58:05;27.00;47.80
72638;DHT22;60681;50.308;8.972;2023-05-21T13:00:32;27.10;50.00
72638;DHT22;60681;50.308;8.972;2023-05-21T13:02:58;27.20;50.90
72638;DHT22;60681;50.308;8.972;2023-05-21T13:05:25;27.30;51.60
72638;DHT22;60681;50.308;8.972;2023-05-21T13:07:51;27.20;48.50
72638;DHT22;60681;50.308;8.972;2023-05-21T13:10:16;27.00;48.10
72638;DHT22;60681;50.308;8.972;2023-05-21T13:12:42;27.00;47.90
72638;DHT22;60681;50.308;8.972;2023-05-21T13:15:08;27.00;48.70
72638;DHT22;60681;50.308;8.972;2023-05-21T13:17:36;27.20;48.50
72638;DHT22;60681;50.308;8.972;2023-05-21T13:20:15;27.20;49.10
72638;DHT22;60681;50.308;8.972;2023-05-21T13:22:46;27.20;46.60
72638;DHT22;60681;50.308;8.972;2023-05-21T13:25:19;27.20;47.20
72638;DHT22;60681;50.308;8.972;2023-05-21T13:27:46;27.10;46.80
72638;DHT22;60681;50.308;8.972;2023-05-21T13:30:12;26.90;46.70
72638;DHT22;60681;50.308;8.972;2023-05-21T13:32:39;27.00;48.70
72638;DHT22;60681;50.308;8.972;2023-05-21T13:35:05;27.00;48.60
72638;DHT22;60681;50.308;8.972;2023-05-21T13:37:33;27.10;48.10
72638;DHT22;60681;50.308;8.972;2023-05-21T13:40:02;27.10;47.90
72638;DHT22;60681;50.308;8.972;2023-05-21T13:42:28;27.20;46.90
72638;DHT22;60681;50.308;8.972;2023-05-21T13:44:54;27.30;47.80
72638;DHT22;60681;50.308;8.972;2023-05-21T13:47:19;27.20;46.30
72638;DHT22;60681;50.308;8.972;2023-05-21T13:49:45;27.10;46.10
72638;DHT22;60681;50.308;8.972;2023-05-21T13:52:11;27.00;47.10
72638;DHT22;60681;50.308;8.972;2023-05-21T13:54:36;26.90;46.60
72638;DHT22;60681;50.308;8.972;2023-05-21T13:57:02;26.80;45.30
72638;DHT22;60681;50.308;8.972;2023-05-21T13:59:27;26.80;44.90
72638;DHT22;60681;50.308;8.972;2023-05-21T14:01:53;26.80;45.50
72638;DHT22;60681;50.308;8.972;2023-05-21T14:04:19;26.90;46.40
72638;DHT22;60681;50.308;8.972;2023-05-21T14:06:45;26.90;45.90
72638;DHT22;60681;50.308;8.972;2023-05-21T14:09:11;26.90;46.10
72638;DHT22;60681;50.308;8.972;2023-05-21T14:11:37;26.80;44.90
72638;DHT22;60681;50.308;8.972;2023-05-21T14:14:03;26.80;45.40
72638;DHT22;60681;50.308;8.972;2023-05-21T14:16:29;26.80;46.20
72638;DHT22;60681;50.308;8.972;2023-05-21T14:18:55;27.10;45.00
72638;DHT22;60681;50.308;8.972;2023-05-21T14:21:21;27.20;46.10
72638;DHT22;60681;50.308;8.972;2023-05-21T14:23:47;27.30;47.30
72638;DHT22;60681;50.308;8.972;2023-05-21T14:26:16;27.50;46.50
72638;DHT22;60681;50.308;8.972;2023-05-21T14:28:43;27.70;47.00
72638;DHT22;60681;50.308;8.972;2023-05-21T14:31:09;27.70;45.50
72638;DHT22;60681;50.308;8.972;2023-05-21T14:33:35;27.80;48.60
72638;DHT22;60681;50.308;8.972;2023-05-21T14:36:02;27.80;46.00
72638;DHT22;60681;50.308;8.972;2023-05-21T14:38:27;27.80;45.30
72638;DHT22;60681;50.308;8.972;2023-05-21T14:40:53;27.70;45.00
72638;DHT22;60681;50.308;8.972;2023-05-21T14:43:19;27.60;42.40
72638;DHT22;60681;50.308;8.972;2023-05-21T14:45:44;27.60;43.90
72638;DHT22;60681;50.308;8.972;2023-05-21T14:48:10;27.50;44.70
72638;DHT22;60681;50.308;8.972;2023-05-21T14:50:37;27.40;43.10
72638;DHT22;60681;50.308;8.972;2023-05-21T14:53:07;27.30;44.30
72638;DHT22;60681;50.308;8.972;2023-05-21T14:55:34;27.30;45.60
72638;DHT22;60681;50.308;8.972;2023-05-21T14:58:04;27.30;46.10
72638;DHT22;60681;50.308;8.972;2023-05-21T15:00:30;27.20;45.80
72638;DHT22;60681;50.308;8.972;2023-05-21T15:02:56;27.20;46.50
72638;DHT22;60681;50.308;8.972;2023-05-21T15:05:22;27.10;47.30
72638;DHT22;60681;50.308;8.972;2023-05-21T15:07:48;27.10;47.40
72638;DHT22;60681;50.308;8.972;2023-05-21T15:10:14;27.00;46.10
72638;DHT22;60681;50.308;8.972;2023-05-21T15:12:39;27.00;47.20
72638;DHT22;60681;50.308;8.972;2023-05-21T15:15:08;27.00;47.10
72638;DHT22;60681;50.308;8.972;2023-05-21T15:17:35;26.90;47.00
72638;DHT22;60681;50.308;8.972;2023-05-21T15:20:01;26.80;47.90
72638;DHT22;60681;50.308;8.972;2023-05-21T15:22:29;26.80;46.30
72638;DHT22;60681;50.308;8.972;2023-05-21T15:24:54;26.80;48.10
72638;DHT22;60681;50.308;8.972;2023-05-21T15:27:20;26.70;47.30
72638;DHT22;60681;50.308;8.972;2023-05-21T15:29:46;26.60;44.90
72638;DHT22;60681;50.308;8.972;2023-05-21T15:32:13;26.50;45.20
72638;DHT22;60681;50.308;8.972;2023-05-21T15:34:38;26.40;46.20
72638;DHT22;60681;50.308;8.972;2023-05-21T15:37:04;26.40;45.60
72638;DHT22;60681;50.308;8.972;2023-05-21T15:39:30;26.40;47.30
72638;DHT22;60681;50.308;8.972;2023-05-21T15:41:55;26.40;47.80
72638;DHT22;60681;50.308;8.972;2023-05-21T15:44:21;26.40;46.80
72638;DHT22;60681;50.308;8.972;2023-05-21T15:46:47;26.30;48.00
72638;DHT22;60681;50.308;8.972;2023-05-21T15:49:16;26.30;46.70
72638;DHT22;60681;50.308;8.972;2023-05-21T15:51:41;26.30;47.30
72638;DHT22;60681;50.308;8.972;2023-05-21T15:54:08;26.20;45.90
72638;DHT22;60681;50.308;8.972;2023-05-21T15:56:34;26.20;46.70
72638;DHT22;60681;50.308;8.972;2023-05-21T15:58:59;26.20;47.80
72638;DHT22;60681;50.308;8.972;2023-05-21T16:01:26;26.20;48.10
72638;DHT22;60681;50.308;8.972;2023-05-21T16:03:53;26.20;47.60
72638;DHT22;60681;50.308;8.972;2023-05-21T16:06:18;26.30;45.30
72638;DHT22;60681;50.308;8.972;2023-05-21T16:08:44;26.20;46.80
72638;DHT22;60681;50.308;8.972;2023-05-21T16:11:10;26.20;46.90
72638;DHT22;60681;50.308;8.972;2023-05-21T16:13:36;26.10;48.10
72638;DHT22;60681;50.308;8.972;2023-05-21T16:16:01;26.10;47.60
72638;DHT22;60681;50.308;8.972;2023-05-21T16:18:27;26.00;48.40
72638;DHT22;60681;50.308;8.972;2023-05-21T16:20:54;26.00;48.70
72638;DHT22;60681;50.308;8.972;2023-05-21T16:23:20;26.00;48.00
72638;DHT22;60681;50.308;8.972;2023-05-21T16:25:46;26.00;49.00
72638;DHT22;60681;50.308;8.972;2023-05-21T16:28:11;25.90;49.10
72638;DHT22;60681;50.308;8.972;2023-05-21T16:30:37;25.90;49.40
72638;DHT22;60681;50.308;8.972;2023-05-21T16:33:02;25.90;50.10
72638;DHT22;60681;50.308;8.972;2023-05-21T16:35:28;25.90;51.30
72638;DHT22;60681;50.308;8.972;2023-05-21T16:37:56;25.90;50.10
72638;DHT22;60681;50.308;8.972;2023-05-21T16:40:22;25.90;50.30
72638;DHT22;60681;50.308;8.972;2023-05-21T16:42:47;25.80;50.50
72638;DHT22;60681;50.308;8.972;2023-05-21T16:45:13;25.80;51.80
72638;DHT22;60681;50.308;8.972;2023-05-21T16:47:50;25.80;53.10
72638;DHT22;60681;50.308;8.972;2023-05-21T16:50:17;25.80;50.00
72638;DHT22;60681;50.308;8.972;2023-05-21T16:52:42;25.80;50.20
72638;DHT22;60681;50.308;8.972;2023-05-21T16:55:08;25.80;50.10
72638;DHT22;60681;50.308;8.972;2023-05-21T16:57:34;25.90;50.60
72638;DHT22;60681;50.308;8.972;2023-05-21T17:00:00;25.80;49.90
72638;DHT22;60681;50.308;8.972;2023-05-21T17:02:27;25.90;54.90
72638;DHT22;60681;50.308;8.972;2023-05-21T17:04:52;25.90;58.40
72638;DHT22;60681;50.308;8.972;2023-05-21T17:07:18;25.90;59.40
72638;DHT22;60681;50.308;8.972;2023-05-21T17:09:44;25.90;59.20
72638;DHT22;60681;50.308;8.972;2023-05-21T17:12:09;25.90;60.30
72638;DHT22;60681;50.308;8.972;2023-05-21T17:14:35;25.90;60.80
72638;DHT22;60681;50.308;8.972;2023-05-21T17:17:00;25.90;56.50
72638;DHT22;60681;50.308;8.972;2023-05-21T17:19:26;25.90;58.10
72638;DHT22;60681;50.308;8.972;2023-05-21T17:21:53;25.90;61.20
72638;DHT22;60681;50.308;8.972;2023-05-21T17:24:19;25.90;60.20
72638;DHT22;60681;50.308;8.972;2023-05-21T17:26:45;25.90;57.90
72638;DHT22;60681;50.308;8.972;2023-05-21T17:29:10;25.90;59.20
72638;DHT22;60681;50.308;8.972;2023-05-21T17:31:36;25.80;54.70
72638;DHT22;60681;50.308;8.972;2023-05-21T17:34:01;25.70;54.90
72638;DHT22;60681;50.308;8.972;2023-05-21T17:36:27;25.70;54.10
72638;DHT22;60681;50.308;8.972;2023-05-21T17:38:52;25.60;55.40
72638;DHT22;60681;50.308;8.972;2023-05-21T17:41:18;25.60;59.10
72638;DHT22;60681;50.308;8.972;2023-05-21T17:43:44;25.60;56.90
72638;DHT22;60681;50.308;8.972;2023-05-21T17:46:10;25.50;59.60
72638;DHT22;60681;50.308;8.972;2023-05-21T17:48:35;25.40;60.40
72638;DHT22;60681;50.308;8.972;2023-05-21T17:51:01;25.40;56.70
72638;DHT22;60681;50.308;8.972;2023-05-21T17:53:28;25.40;57.40
72638;DHT22;60681;50.308;8.972;2023-05-21T17:55:53;25.30;56.10
72638;DHT22;60681;50.308;8.972;2023-05-21T17:58:19;25.30;55.80
72638;DHT22;60681;50.308;8.972;2023-05-21T18:00:45;25.20;56.20
72638;DHT22;60681;50.308;8.972;2023-05-21T18:03:10;25.20;58.90
72638;DHT22;60681;50.308;8.972;2023-05-21T18:05:36;25.20;59.80
72638;DHT22;60681;50.308;8.972;2023-05-21T18:08:01;25.10;59.00
72638;DHT22;60681;50.308;8.972;2023-05-21T18:10:28;25.10;58.30
72638;DHT22;60681;50.308;8.972;2023-05-21T18:12:53;25.00;59.00
72638;DHT22;60681;50.308;8.972;2023-05-21T18:15:19;25.00;58.00
72638;DHT22;60681;50.308;8.972;2023-05-21T18:17:45;24.90;60.70
72638;DHT22;60681;50.308;8.972;2023-05-21T18:20:12;24.70;62.40
72638;DHT22;60681;50.308;8.972;2023-05-21T18:22:37;24.60;62.60
72638;DHT22;60681;50.308;8.972;2023-05-21T18:25:03;24.50;63.40
72638;DHT22;60681;50.308;8.972;2023-05-21T18:27:29;24.40;63.30
72638;DHT22;60681;50.308;8.972;2023-05-21T18:29:55;24.30;64.30
72638;DHT22;60681;50.308;8.972;2023-05-21T18:32:21;24.10;66.40
72638;DHT22;60681;50.308;8.972;2023-05-21T18:34:47;24.00;66.50
72638;DHT22;60681;50.308;8.972;2023-05-21T18:37:13;23.90;66.70
72638;DHT22;60681;50.308;8.972;2023-05-21T18:39:39;23.80;66.30
72638;DHT22;60681;50.308;8.972;2023-05-21T18:42:04;23.60;67.10
72638;DHT22;60681;50.308;8.972;2023-05-21T18:44:30;23.50;67.50
72638;DHT22;60681;50.308;8.972;2023-05-21T18:46:56;23.40;68.80
72638;DHT22;60681;50.308;8.972;2023-05-21T18:49:22;23.30;68.20
72638;DHT22;60681;50.308;8.972;2023-05-21T18:51:48;23.20;68.90
72638;DHT22;60681;50.308;8.972;2023-05-21T18:54:14;23.10;69.80
72638;DHT22;60681;50.308;8.972;2023-05-21T18:56:39;22.90;69.70
72638;DHT22;60681;50.308;8.972;2023-05-21T18:59:05;22.80;69.40
72638;DHT22;60681;50.308;8.972;2023-05-21T19:01:32;22.60;70.10
72638;DHT22;60681;50.308;8.972;2023-05-21T19:03:58;22.50;70.50
72638;DHT22;60681;50.308;8.972;2023-05-21T19:06:23;22.40;70.40
72638;DHT22;60681;50.308;8.972;2023-05-21T19:08:52;22.20;70.60
72638;DHT22;60681;50.308;8.972;2023-05-21T19:11:18;22.10;71.60
72638;DHT22;60681;50.308;8.972;2023-05-21T19:13:45;22.00;71.70
72638;DHT22;60681;50.308;8.972;2023-05-21T19:16:12;21.90;72.00
72638;DHT22;60681;50.308;8.972;2023-05-21T19:18:37;21.70;71.80
72638;DHT22;60681;50.308;8.972;2023-05-21T19:21:06;21.60;72.60
72638;DHT22;60681;50.308;8.972;2023-05-21T19:23:32;21.60;72.40
72638;DHT22;60681;50.308;8.972;2023-05-21T19:25:58;21.50;72.40
72638;DHT22;60681;50.308;8.972;2023-05-21T19:28:23;21.50;72.60
72638;DHT22;60681;50.308;8.972;2023-05-21T19:30:49;21.30;73.70
72638;DHT22;60681;50.308;8.972;2023-05-21T19:33:15;21.20;74.00
72638;DHT22;60681;50.308;8.972;2023-05-21T19:35:40;21.10;73.80
72638;DHT22;60681;50.308;8.972;2023-05-21T19:38:10;21.00;75.30
72638;DHT22;60681;50.308;8.972;2023-05-21T19:40:35;20.90;74.70
72638;DHT22;60681;50.308;8.972;2023-05-21T19:43:01;20.80;75.10
72638;DHT22;60681;50.308;8.972;2023-05-21T19:45:27;20.70;74.90
72638;DHT22;60681;50.308;8.972;2023-05-21T19:47:52;20.60;75.60
72638;DHT22;60681;50.308;8.972;2023-05-21T19:50:18;20.50;75.50
72638;DHT22;60681;50.308;8.972;2023-05-21T19:52:44;20.40;75.50
72638;DHT22;60681;50.308;8.972;2023-05-21T19:55:09;20.30;76.00
72638;DHT22;60681;50.308;8.972;2023-05-21T19:57:36;20.20;76.50
72638;DHT22;60681;50.308;8.972;2023-05-21T20:00:03;20.10;77.20
72638;DHT22;60681;50.308;8.972;2023-05-21T20:02:29;20.00;76.90
72638;DHT22;60681;50.308;8.972;2023-05-21T20:04:55;19.90;76.60
72638;DHT22;60681;50.308;8.972;2023-05-21T20:07:22;19.80;77.30
72638;DHT22;60681;50.308;8.972;2023-05-21T20:09:48;19.80;77.40
72638;DHT22;60681;50.308;8.972;2023-05-21T20:12:13;19.60;77.90
72638;DHT22;60681;50.308;8.972;2023-05-21T20:14:40;19.50;77.60
72638;DHT22;60681;50.308;8.972;2023-05-21T20:17:07;19.50;78.20
72638;DHT22;60681;50.308;8.972;2023-05-21T20:19:33;19.40;78.30
72638;DHT22;60681;50.308;8.972;2023-05-21T20:21:59;19.30;78.60
72638;DHT22;60681;50.308;8.972;2023-05-21T20:24:24;19.30;79.80
72638;DHT22;60681;50.308;8.972;2023-05-21T20:26:50;19.20;79.00
72638;DHT22;60681;50.308;8.972;2023-05-21T20:29:16;19.10;78.90
72638;DHT22;60681;50.308;8.972;2023-05-21T20:31:42;19.00;79.20
72638;DHT22;60681;50.308;8.972;2023-05-21T20:34:08;19.00;79.30
72638;DHT22;60681;50.308;8.972;2023-05-21T20:36:36;18.90;80.00
72638;DHT22;60681;50.308;8.972;2023-05-21T20:39:04;18.80;80.00
72638;DHT22;60681;50.308;8.972;2023-05-21T20:41:30;18.70;80.90
72638;DHT22;60681;50.308;8.972;2023-05-21T20:44:09;18.70;79.90
72638;DHT22;60681;50.308;8.972;2023-05-21T20:46:36;18.60;81.10
72638;DHT22;60681;50.308;8.972;2023-05-21T20:49:06;18.60;80.70
72638;DHT22;60681;50.308;8.972;2023-05-21T20:51:31;18.50;81.00
72638;DHT22;60681;50.308;8.972;2023-05-21T20:53:57;18.40;81.60
72638;DHT22;60681;50.308;8.972;2023-05-21T20:56:23;18.40;81.40
72638;DHT22;60681;50.308;8.972;2023-05-21T20:58:49;18.40;81.20
72638;DHT22;60681;50.308;8.972;2023-05-21T21:01:15;18.30;81.40
72638;DHT22;60681;50.308;8.972;2023-05-21T21:03:42;18.20;82.00
72638;DHT22;60681;50.308;8.972;2023-05-21T21:06:10;18.20;82.50
72638;DHT22;60681;50.308;8.972;2023-05-21T21:08:36;18.10;82.80
72638;DHT22;60681;50.308;8.972;2023-05-21T21:11:09;18.10;83.70
72638;DHT22;60681;50.308;8.972;2023-05-21T21:13:37;18.10;82.60
72638;DHT22;60681;50.308;8.972;2023-05-21T21:16:04;18.10;83.30
72638;DHT22;60681;50.308;8.972;2023-05-21T21:18:29;18.00;83.40
72638;DHT22;60681;50.308;8.972;2023-05-21T21:20:57;18.00;83.00
72638;DHT22;60681;50.308;8.972;2023-05-21T21:23:29;17.90;82.90
72638;DHT22;60681;50.308;8.972;2023-05-21T21:25:55;17.90;82.80
72638;DHT22;60681;50.308;8.972;2023-05-21T21:28:20;17.90;83.80
72638;DHT22;60681;50.308;8.972;2023-05-21T21:30:46;17.80;83.30
72638;DHT22;60681;50.308;8.972;2023-05-21T21:33:11;17.70;83.40
72638;DHT22;60681;50.308;8.972;2023-05-21T21:35:38;17.70;83.30
72638;DHT22;60681;50.308;8.972;2023-05-21T21:38:04;17.60;84.20
72638;DHT22;60681;50.308;8.972;2023-05-21T21:40:30;17.60;84.90
72638;DHT22;60681;50.308;8.972;2023-05-21T21:42:55;17.50;85.40
72638;DHT22;60681;50.308;8.972;2023-05-21T21:45:21;17.50;85.30
72638;DHT22;60681;50.308;8.972;2023-05-21T21:47:46;17.50;85.30
72638;DHT22;60681;50.308;8.972;2023-05-21T21:50:12;17.50;85.40
72638;DHT22;60681;50.308;8.972;2023-05-21T21:52:38;17.40;85.20
72638;DHT22;60681;50.308;8.972;2023-05-21T21:55:09;17.40;85.50
72638;DHT22;60681;50.308;8.972;2023-05-21T21:57:36;17.30;84.90
72638;DHT22;60681;50.308;8.972;2023-05-21T22:00:06;17.30;85.20
72638;DHT22;60681;50.308;8.972;2023-05-21T22:02:35;17.20;85.70
72638;DHT22;60681;50.308;8.972;2023-05-21T22:05:01;17.20;85.30
72638;DHT22;60681;50.308;8.972;2023-05-21T22:07:26;17.20;86.50
72638;DHT22;60681;50.308;8.972;2023-05-21T22:09:53;17.10;86.60
72638;DHT22;60681;50.308;8.972;2023-05-21T22:12:18;17.10;87.10
72638;DHT22;60681;50.308;8.972;2023-05-21T22:14:44;17.00;86.50
72638;DHT22;60681;50.308;8.972;2023-05-21T22:17:09;17.00;86.40
72638;DHT22;60681;50.308;8.972;2023-05-21T22:19:35;17.00;87.80
72638;DHT22;60681;50.308;8.972;2023-05-21T22:22:00;16.90;86.80
72638;DHT22;60681;50.308;8.972;2023-05-21T22:24:28;16.90;87.10
72638;DHT22;60681;50.308;8.972;2023-05-21T22:26:53;16.90;87.00
72638;DHT22;60681;50.308;8.972;2023-05-21T22:29:19;16.90;87.00
72638;DHT22;60681;50.308;8.972;2023-05-21T22:31:47;16.80;86.90
72638;DHT22;60681;50.308;8.972;2023-05-21T22:34:12;16.80;87.50
72638;DHT22;60681;50.308;8.972;2023-05-21T22:36:38;16.70;88.20
72638;DHT22;60681;50.308;8.972;2023-05-21T22:39:04;16.60;87.90
72638;DHT22;60681;50.308;8.972;2023-05-21T22:41:30;16.60;87.70
72638;DHT22;60681;50.308;8.972;2023-05-21T22:43:55;16.60;87.70
72638;DHT22;60681;50.308;8.972;2023-05-21T22:46:21;16.60;88.50
72638;DHT22;60681;50.308;8.972;2023-05-21T22:48:46;16.50;88.60
72638;DHT22;60681;50.308;8.972;2023-05-21T22:51:12;16.50;88.40
72638;DHT22;60681;50.308;8.972;2023-05-21T22:53:38;16.40;88.40
72638;DHT22;60681;50.308;8.972;2023-05-21T22:56:04;16.40;88.50
72638;DHT22;60681;50.308;8.972;2023-05-21T22:58:30;16.40;88.30
72638;DHT22;60681;50.308;8.972;2023-05-21T23:00:56;16.30;89.00
72638;DHT22;60681;50.308;8.972;2023-05-21T23:03:21;16.30;89.80
72638;DHT22;60681;50.308;8.972;2023-05-21T23:05:47;16.30;89.10
72638;DHT22;60681;50.308;8.972;2023-05-21T23:08:12;16.30;89.20
72638;DHT22;60681;50.308;8.972;2023-05-21T23:10:38;16.20;90.00
72638;DHT22;60681;50.308;8.972;2023-05-21T23:13:03;16.20;89.20
72638;DHT22;60681;50.308;8.972;2023-05-21T23:15:29;16.20;89.40
72638;DHT22;60681;50.308;8.972;2023-05-21T23:17:55;16.20;90.00
72638;DHT22;60681;50.308;8.972;2023-05-21T23:20:21;16.20;89.20
72638;DHT22;60681;50.308;8.972;2023-05-21T23:22:47;16.10;90.00
72638;DHT22;60681;50.308;8.972;2023-05-21T23:25:12;16.10;89.40
72638;DHT22;60681;50.308;8.972;2023-05-21T23:27:38;16.00;89.40
72638;DHT22;60681;50.308;8.972;2023-05-21T23:30:04;16.10;89.90
72638;DHT22;60681;50.308;8.972;2023-05-21T23:32:30;16.10;90.10
72638;DHT22;60681;50.308;8.972;2023-05-21T23:34:55;16.10;90.10
72638;DHT22;60681;50.308;8.972;2023-05-21T23:37:21;16.10;90.10
72638;DHT22;60681;50.308;8.972;2023-05-21T23:39:47;16.10;90.50
72638;DHT22;60681;50.308;8.972;2023-05-21T23:42:14;16.10;90.30
72638;DHT22;60681;50.308;8.972;2023-05-21T23:44:40;16.10;90.30
72638;DHT22;60681;50.308;8.972;2023-05-21T23:47:06;16.00;90.60
72638;DHT22;60681;50.308;8.972;2023-05-21T23:49:31;16.00;91.00
72638;DHT22;60681;50.308;8.972;2023-05-21T23:51:57;16.00;90.50
72638;DHT22;60681;50.308;8.972;2023-05-21T23:54:23;16.00;91.00
72638;DHT22;60681;50.308;8.972;2023-05-21T23:56:48;16.00;90.60
72638;DHT22;60681;50.308;8.972;2023-05-21T23:59:14;15.90;90.90
